sensor_id;sensor_type;location;lat;lon;timestamp;temperature;humidity
68248;SHT30;55064;49.636;12.164;2023-06-24T00:01:32;14.36;96.40
68248;SHT30;55064;49.636;12.164;2023-06-24T00:04:08;14.38;96.98
68248;SHT30;55064;49.636;12.164;2023-06-24T00:10:32;14.33;96.69
68248;SHT30;55064;49.636;12.164;2023-06-24T00:16:53;14.37;96.50
68248;SHT30;55064;49.636;12.164;2023-06-24T00:19:37;14.41;96.15
68248;SHT30;55064;49.636;12.164;2023-06-24T00:25:26;14.40;96.64
68248;SHT30;55064;49.636;12.164;2023-06-24T00:28:14;14.42;96.34
68248;SHT30;55064;49.636;12.164;2023-06-24T00:30:39;14.38;96.89
68248;SHT30;55064;49.636;12.164;2023-06-24T00:33:05;14.38;96.85
68248;SHT30;55064;49.636;12.164;2023-06-24T00:35:36;14.33;98.02
68248;SHT30;55064;49.636;12.164;2023-06-24T00:38:03;14.34;97.52
68248;SHT30;55064;49.636;12.164;2023-06-24T00:40:28;14.24;97.33
68248;SHT30;55064;49.636;12.164;2023-06-24T00:42:55;14.24;97.58
68248;SHT30;55064;49.636;12.164;2023-06-24T00:45:20;14.30;97.81
68248;SHT30;55064;49.636;12.164;2023-06-24T00:47:46;14.33;97.46
68248;SHT30;55064;49.636;12.164;2023-06-24T00:50:12;14.41;97.65
68248;SHT30;55064;49.636;12.164;2023-06-24T00:52:38;14.40;97.32
68248;SHT30;55064;49.636;12.164;2023-06-24T00:55:11;14.42;97.08
68248;SHT30;55064;49.636;12.164;2023-06-24T00:57:44;14.41;96.76
68248;SHT30;55064;49.636;12.164;2023-06-24T01:00:12;14.44;96.80
68248;SHT30;55064;49.636;12.164;2023-06-24T01:02:44;14.42;97.57
68248;SHT30;55064;49.636;12.164;2023-06-24T01:05:11;14.41;97.09
68248;SHT30;55064;49.636;12.164;2023-06-24T01:07:40;14.40;97.33
68248;SHT30;55064;49.636;12.164;2023-06-24T01:10:08;14.42;97.67
68248;SHT30;55064;49.636;12.164;2023-06-24T01:12:39;14.44;97.42
68248;SHT30;55064;49.636;12.164;2023-06-24T01:15:07;14.33;98.24
68248;SHT30;55064;49.636;12.164;2023-06-24T01:17:39;14.19;98.31
68248;SHT30;55064;49.636;12.164;2023-06-24T01:23:05;14.17;98.79
68248;SHT30;55064;49.636;12.164;2023-06-24T01:36:35;14.31;98.48
68248;SHT30;55064;49.636;12.164;2023-06-24T01:39:04;14.33;98.18
68248;SHT30;55064;49.636;12.164;2023-06-24T01:41:36;14.30;98.21
68248;SHT30;55064;49.636;12.164;2023-06-24T01:44:05;14.40;97.70
68248;SHT30;55064;49.636;12.164;2023-06-24T01:46:36;14.36;97.57
68248;SHT30;55064;49.636;12.164;2023-06-24T01:49:04;14.41;97.75
68248;SHT30;55064;49.636;12.164;2023-06-24T01:51:35;14.40;97.61
68248;SHT30;55064;49.636;12.164;2023-06-24T01:54:05;14.42;98.18
68248;SHT30;55064;49.636;12.164;2023-06-24T01:56:32;14.41;97.72
68248;SHT30;55064;49.636;12.164;2023-06-24T01:59:01;14.41;97.04
68248;SHT30;55064;49.636;12.164;2023-06-24T02:01:27;14.44;97.55
68248;SHT30;55064;49.636;12.164;2023-06-24T02:03:56;14.41;97.76
68248;SHT30;55064;49.636;12.164;2023-06-24T02:06:22;14.48;97.35
68248;SHT30;55064;49.636;12.164;2023-06-24T02:08:50;14.47;97.89
68248;SHT30;55064;49.636;12.164;2023-06-24T02:11:22;14.42;97.98
68248;SHT30;55064;49.636;12.164;2023-06-24T02:13:49;14.42;97.68
68248;SHT30;55064;49.636;12.164;2023-06-24T02:16:16;14.42;97.32
68248;SHT30;55064;49.636;12.164;2023-06-24T02:18:43;14.40;97.54
68248;SHT30;55064;49.636;12.164;2023-06-24T02:21:09;14.42;97.70
68248;SHT30;55064;49.636;12.164;2023-06-24T02:23:37;14.41;97.65
68248;SHT30;55064;49.636;12.164;2023-06-24T02:26:03;14.45;97.68
68248;SHT30;55064;49.636;12.164;2023-06-24T02:28:31;14.44;97.53
68248;SHT30;55064;49.636;12.164;2023-06-24T02:30:58;14.42;97.54
68248;SHT30;55064;49.636;12.164;2023-06-24T02:33:26;14.44;97.87
68248;SHT30;55064;49.636;12.164;2023-06-24T02:35:53;14.42;97.35
68248;SHT30;55064;49.636;12.164;2023-06-24T02:38:18;14.44;97.66
68248;SHT30;55064;49.636;12.164;2023-06-24T02:40:45;14.40;97.99
68248;SHT30;55064;49.636;12.164;2023-06-24T02:43:10;14.40;98.15
68248;SHT30;55064;49.636;12.164;2023-06-24T02:45:36;14.38;98.20
68248;SHT30;55064;49.636;12.164;2023-06-24T02:48:01;14.40;98.13
68248;SHT30;55064;49.636;12.164;2023-06-24T02:50:27;14.41;97.63
68248;SHT30;55064;49.636;12.164;2023-06-24T02:52:54;14.41;97.93
68248;SHT30;55064;49.636;12.164;2023-06-24T02:55:21;14.44;97.83
68248;SHT30;55064;49.636;12.164;2023-06-24T02:57:47;14.45;97.78
68248;SHT30;55064;49.636;12.164;2023-06-24T03:00:13;14.44;97.86
68248;SHT30;55064;49.636;12.164;2023-06-24T03:02:40;14.44;97.26
68248;SHT30;55064;49.636;12.164;2023-06-24T03:05:10;14.49;97.31
68248;SHT30;55064;49.636;12.164;2023-06-24T03:07:36;14.48;97.12
68248;SHT30;55064;49.636;12.164;2023-06-24T03:10:02;14.49;97.15
68248;SHT30;55064;49.636;12.164;2023-06-24T03:12:29;14.47;96.94
68248;SHT30;55064;49.636;12.164;2023-06-24T03:14:56;14.41;97.36
68248;SHT30;55064;49.636;12.164;2023-06-24T03:17:24;14.42;97.47
68248;SHT30;55064;49.636;12.164;2023-06-24T03:19:52;14.45;97.77
68248;SHT30;55064;49.636;12.164;2023-06-24T03:22:18;14.48;97.86
68248;SHT30;55064;49.636;12.164;2023-06-24T03:24:43;14.48;97.66
68248;SHT30;55064;49.636;12.164;2023-06-24T03:27:10;14.51;97.12
68248;SHT30;55064;49.636;12.164;2023-06-24T03:29:35;14.54;97.17
68248;SHT30;55064;49.636;12.164;2023-06-24T03:32:02;14.51;97.44
68248;SHT30;55064;49.636;12.164;2023-06-24T03:34:27;14.52;97.54
68248;SHT30;55064;49.636;12.164;2023-06-24T03:36:56;14.54;96.94
68248;SHT30;55064;49.636;12.164;2023-06-24T03:39:21;14.56;97.14
68248;SHT30;55064;49.636;12.164;2023-06-24T03:41:49;14.54;96.70
68248;SHT30;55064;49.636;12.164;2023-06-24T03:44:15;14.49;96.86
68248;SHT30;55064;49.636;12.164;2023-06-24T03:46:42;14.41;97.48
68248;SHT30;55064;49.636;12.164;2023-06-24T03:49:08;14.42;97.34
68248;SHT30;55064;49.636;12.164;2023-06-24T03:51:34;14.48;97.14
68248;SHT30;55064;49.636;12.164;2023-06-24T03:54:00;14.54;97.10
68248;SHT30;55064;49.636;12.164;2023-06-24T03:56:30;14.52;96.98
68248;SHT30;55064;49.636;12.164;2023-06-24T03:58:55;14.52;96.86
68248;SHT30;55064;49.636;12.164;2023-06-24T04:01:21;14.57;97.05
68248;SHT30;55064;49.636;12.164;2023-06-24T04:03:48;14.54;97.05
68248;SHT30;55064;49.636;12.164;2023-06-24T04:06:16;14.60;97.20
68248;SHT30;55064;49.636;12.164;2023-06-24T04:08:41;14.57;97.20
68248;SHT30;55064;49.636;12.164;2023-06-24T04:11:09;14.58;97.40
68248;SHT30;55064;49.636;12.164;2023-06-24T04:13:35;14.61;96.70
68248;SHT30;55064;49.636;12.164;2023-06-24T04:16:02;14.56;97.10
68248;SHT30;55064;49.636;12.164;2023-06-24T04:18:28;14.52;96.87
68248;SHT30;55064;49.636;12.164;2023-06-24T04:20:55;14.54;97.18
68248;SHT30;55064;49.636;12.164;2023-06-24T04:23:23;14.60;96.60
68248;SHT30;55064;49.636;12.164;2023-06-24T04:25:48;14.64;96.39
68248;SHT30;55064;49.636;12.164;2023-06-24T04:28:15;14.65;96.97
68248;SHT30;55064;49.636;12.164;2023-06-24T04:30:43;14.69;96.74
68248;SHT30;55064;49.636;12.164;2023-06-24T04:33:08;14.74;96.90
68248;SHT30;55064;49.636;12.164;2023-06-24T04:35:36;14.75;96.95
68248;SHT30;55064;49.636;12.164;2023-06-24T04:38:02;14.74;97.19
68248;SHT30;55064;49.636;12.164;2023-06-24T04:40:28;14.74;96.70
68248;SHT30;55064;49.636;12.164;2023-06-24T04:42:53;14.82;96.70
68248;SHT30;55064;49.636;12.164;2023-06-24T04:45:19;14.81;96.69
68248;SHT30;55064;49.636;12.164;2023-06-24T04:47:47;14.85;96.35
68248;SHT30;55064;49.636;12.164;2023-06-24T04:50:12;14.86;96.06
68248;SHT30;55064;49.636;12.164;2023-06-24T04:52:39;14.84;96.08
68248;SHT30;55064;49.636;12.164;2023-06-24T04:55:05;14.81;95.92
68248;SHT30;55064;49.636;12.164;2023-06-24T04:57:32;14.84;95.91
68248;SHT30;55064;49.636;12.164;2023-06-24T04:59:57;14.79;95.89
68248;SHT30;55064;49.636;12.164;2023-06-24T05:02:23;14.96;95.64
68248;SHT30;55064;49.636;12.164;2023-06-24T05:04:52;15.19;95.22
68248;SHT30;55064;49.636;12.164;2023-06-24T05:07:19;15.34;93.77
68248;SHT30;55064;49.636;12.164;2023-06-24T05:09:47;15.64;92.52
68248;SHT30;55064;49.636;12.164;2023-06-24T05:12:14;16.30;91.29
68248;SHT30;55064;49.636;12.164;2023-06-24T05:14:39;17.37;86.84
68248;SHT30;55064;49.636;12.164;2023-06-24T05:17:05;17.12;86.40
68248;SHT30;55064;49.636;12.164;2023-06-24T05:19:33;17.11;87.54
68248;SHT30;55064;49.636;12.164;2023-06-24T05:22:02;17.32;86.82
68248;SHT30;55064;49.636;12.164;2023-06-24T05:24:27;16.84;88.23
68248;SHT30;55064;49.636;12.164;2023-06-24T05:26:53;16.47;89.29
68248;SHT30;55064;49.636;12.164;2023-06-24T05:29:20;15.94;91.21
68248;SHT30;55064;49.636;12.164;2023-06-24T05:31:46;15.89;91.71
68248;SHT30;55064;49.636;12.164;2023-06-24T05:34:11;15.84;91.90
68248;SHT30;55064;49.636;12.164;2023-06-24T05:36:38;15.58;92.84
68248;SHT30;55064;49.636;12.164;2023-06-24T05:39:04;15.62;93.46
68248;SHT30;55064;49.636;12.164;2023-06-24T05:41:35;15.46;93.49
68248;SHT30;55064;49.636;12.164;2023-06-24T05:44:02;15.68;93.35
68248;SHT30;55064;49.636;12.164;2023-06-24T05:46:28;15.81;93.12
68248;SHT30;55064;49.636;12.164;2023-06-24T05:48:53;15.89;92.74
68248;SHT30;55064;49.636;12.164;2023-06-24T05:51:23;15.69;93.12
68248;SHT30;55064;49.636;12.164;2023-06-24T05:53:53;15.79;93.22
68248;SHT30;55064;49.636;12.164;2023-06-24T05:56:20;15.81;93.39
68248;SHT30;55064;49.636;12.164;2023-06-24T05:58:45;15.95;93.54
68248;SHT30;55064;49.636;12.164;2023-06-24T06:01:17;16.02;93.32
68248;SHT30;55064;49.636;12.164;2023-06-24T06:03:45;16.06;92.92
68248;SHT30;55064;49.636;12.164;2023-06-24T06:06:12;16.20;93.16
68248;SHT30;55064;49.636;12.164;2023-06-24T06:08:40;16.29;92.63
68248;SHT30;55064;49.636;12.164;2023-06-24T06:11:06;16.06;92.62
68248;SHT30;55064;49.636;12.164;2023-06-24T06:13:33;16.19;92.46
68248;SHT30;55064;49.636;12.164;2023-06-24T06:16:02;16.24;92.46
68248;SHT30;55064;49.636;12.164;2023-06-24T06:18:28;16.32;91.93
68248;SHT30;55064;49.636;12.164;2023-06-24T06:20:54;16.47;91.59
68248;SHT30;55064;49.636;12.164;2023-06-24T06:23:19;16.50;91.56
68248;SHT30;55064;49.636;12.164;2023-06-24T06:25:44;16.51;90.96
68248;SHT30;55064;49.636;12.164;2023-06-24T06:28:10;16.57;91.06
68248;SHT30;55064;49.636;12.164;2023-06-24T06:30:35;16.61;90.49
68248;SHT30;55064;49.636;12.164;2023-06-24T06:33:00;16.41;91.23
68248;SHT30;55064;49.636;12.164;2023-06-24T06:35:26;16.56;91.41
68248;SHT30;55064;49.636;12.164;2023-06-24T06:37:56;16.70;90.73
68248;SHT30;55064;49.636;12.164;2023-06-24T06:40:22;16.87;90.62
68248;SHT30;55064;49.636;12.164;2023-06-24T06:42:49;16.92;90.12
68248;SHT30;55064;49.636;12.164;2023-06-24T06:45:14;17.04;90.11
68248;SHT30;55064;49.636;12.164;2023-06-24T06:47:40;17.18;89.56
68248;SHT30;55064;49.636;12.164;2023-06-24T06:50:08;17.12;89.41
68248;SHT30;55064;49.636;12.164;2023-06-24T06:52:34;17.22;89.16
68248;SHT30;55064;49.636;12.164;2023-06-24T06:55:00;17.26;88.74
68248;SHT30;55064;49.636;12.164;2023-06-24T06:57:31;17.32;89.17
68248;SHT30;55064;49.636;12.164;2023-06-24T06:59:57;17.29;88.52
68248;SHT30;55064;49.636;12.164;2023-06-24T07:02:23;17.44;88.26
68248;SHT30;55064;49.636;12.164;2023-06-24T07:04:55;17.44;88.60
68248;SHT30;55064;49.636;12.164;2023-06-24T07:07:26;17.60;88.82
68248;SHT30;55064;49.636;12.164;2023-06-24T07:13:42;17.47;89.19
68248;SHT30;55064;49.636;12.164;2023-06-24T07:16:22;17.44;88.80
68248;SHT30;55064;49.636;12.164;2023-06-24T07:19:00;17.36;86.88
68248;SHT30;55064;49.636;12.164;2023-06-24T07:21:31;17.53;87.32
68248;SHT30;55064;49.636;12.164;2023-06-24T07:24:09;17.54;88.21
68248;SHT30;55064;49.636;12.164;2023-06-24T07:26:40;17.64;88.01
68248;SHT30;55064;49.636;12.164;2023-06-24T07:29:12;17.49;87.49
68248;SHT30;55064;49.636;12.164;2023-06-24T07:31:37;17.74;87.05
68248;SHT30;55064;49.636;12.164;2023-06-24T07:34:05;17.89;87.51
68248;SHT30;55064;49.636;12.164;2023-06-24T07:36:33;17.94;86.65
68248;SHT30;55064;49.636;12.164;2023-06-24T07:39:12;18.05;86.01
68248;SHT30;55064;49.636;12.164;2023-06-24T07:41:49;18.24;85.93
68248;SHT30;55064;49.636;12.164;2023-06-24T07:44:17;18.43;84.81
68248;SHT30;55064;49.636;12.164;2023-06-24T07:46:44;18.53;83.66
68248;SHT30;55064;49.636;12.164;2023-06-24T07:49:13;18.74;84.04
68248;SHT30;55064;49.636;12.164;2023-06-24T07:51:47;18.78;82.50
68248;SHT30;55064;49.636;12.164;2023-06-24T07:54:17;18.98;81.00
68248;SHT30;55064;49.636;12.164;2023-06-24T07:56:44;18.95;80.58
68248;SHT30;55064;49.636;12.164;2023-06-24T07:59:12;18.94;81.44
68248;SHT30;55064;49.636;12.164;2023-06-24T08:01:45;19.07;81.28
68248;SHT30;55064;49.636;12.164;2023-06-24T08:04:12;19.37;80.18
68248;SHT30;55064;49.636;12.164;2023-06-24T08:06:41;19.62;78.38
68248;SHT30;55064;49.636;12.164;2023-06-24T08:09:35;20.00;75.59
68248;SHT30;55064;49.636;12.164;2023-06-24T08:12:09;20.30;75.62
68248;SHT30;55064;49.636;12.164;2023-06-24T08:14:37;20.42;74.31
68248;SHT30;55064;49.636;12.164;2023-06-24T08:17:03;20.52;73.29
68248;SHT30;55064;49.636;12.164;2023-06-24T08:19:36;20.70;75.35
68248;SHT30;55064;49.636;12.164;2023-06-24T08:22:04;20.93;74.23
68248;SHT30;55064;49.636;12.164;2023-06-24T08:24:29;20.77;74.15
68248;SHT30;55064;49.636;12.164;2023-06-24T08:26:59;20.90;74.21
68248;SHT30;55064;49.636;12.164;2023-06-24T08:29:24;20.93;74.73
68248;SHT30;55064;49.636;12.164;2023-06-24T08:32:04;20.72;72.91
68248;SHT30;55064;49.636;12.164;2023-06-24T08:47:24;21.89;67.59
68248;SHT30;55064;49.636;12.164;2023-06-24T08:49:59;21.97;66.47
68248;SHT30;55064;49.636;12.164;2023-06-24T08:55:53;22.48;64.19
68248;SHT30;55064;49.636;12.164;2023-06-24T08:58:21;22.70;64.21
68248;SHT30;55064;49.636;12.164;2023-06-24T09:00:47;22.63;64.97
68248;SHT30;55064;49.636;12.164;2023-06-24T09:03:12;23.04;64.39
68248;SHT30;55064;49.636;12.164;2023-06-24T09:05:43;23.15;63.86
68248;SHT30;55064;49.636;12.164;2023-06-24T09:08:15;23.44;62.25
68248;SHT30;55064;49.636;12.164;2023-06-24T09:11:01;23.18;62.38
68248;SHT30;55064;49.636;12.164;2023-06-24T09:13:43;23.14;59.71
68248;SHT30;55064;49.636;12.164;2023-06-24T09:16:17;23.42;60.50
68248;SHT30;55064;49.636;12.164;2023-06-24T09:19:09;22.87;60.80
68248;SHT30;55064;49.636;12.164;2023-06-24T09:21:34;23.10;59.09
68248;SHT30;55064;49.636;12.164;2023-06-24T09:24:02;23.49;58.57
68248;SHT30;55064;49.636;12.164;2023-06-24T09:26:30;23.54;57.68
68248;SHT30;55064;49.636;12.164;2023-06-24T09:28:57;23.45;57.85
68248;SHT30;55064;49.636;12.164;2023-06-24T09:31:23;23.65;57.06
68248;SHT30;55064;49.636;12.164;2023-06-24T09:33:57;23.93;56.72
68248;SHT30;55064;49.636;12.164;2023-06-24T09:36:24;24.10;56.54
68248;SHT30;55064;49.636;12.164;2023-06-24T09:38:50;24.14;57.10
68248;SHT30;55064;49.636;12.164;2023-06-24T09:41:24;24.28;57.02
68248;SHT30;55064;49.636;12.164;2023-06-24T09:43:57;24.30;56.13
68248;SHT30;55064;49.636;12.164;2023-06-24T09:46:47;24.44;56.89
68248;SHT30;55064;49.636;12.164;2023-06-24T09:49:48;24.30;55.74
68248;SHT30;55064;49.636;12.164;2023-06-24T09:52:16;24.67;55.37
68248;SHT30;55064;49.636;12.164;2023-06-24T09:54:49;24.83;57.11
68248;SHT30;55064;49.636;12.164;2023-06-24T09:57:18;24.83;52.51
68248;SHT30;55064;49.636;12.164;2023-06-24T09:59:50;24.64;53.19
68248;SHT30;55064;49.636;12.164;2023-06-24T10:02:16;24.88;54.33
68248;SHT30;55064;49.636;12.164;2023-06-24T10:04:52;24.73;54.53
68248;SHT30;55064;49.636;12.164;2023-06-24T10:07:17;25.19;54.16
68248;SHT30;55064;49.636;12.164;2023-06-24T10:09:55;24.89;53.07
68248;SHT30;55064;49.636;12.164;2023-06-24T10:12:41;24.80;54.09
68248;SHT30;55064;49.636;12.164;2023-06-24T10:15:24;25.20;54.97
68248;SHT30;55064;49.636;12.164;2023-06-24T10:24:47;25.20;51.74
68248;SHT30;55064;49.636;12.164;2023-06-24T10:27:27;25.26;50.63
68248;SHT30;55064;49.636;12.164;2023-06-24T10:30:20;25.34;51.24
68248;SHT30;55064;49.636;12.164;2023-06-24T10:33:04;24.93;52.08
68248;SHT30;55064;49.636;12.164;2023-06-24T10:36:30;24.25;53.28
68248;SHT30;55064;49.636;12.164;2023-06-24T10:48:47;25.17;49.06
68248;SHT30;55064;49.636;12.164;2023-06-24T10:51:47;25.12;48.68
68248;SHT30;55064;49.636;12.164;2023-06-24T10:54:43;25.24;49.53
68248;SHT30;55064;49.636;12.164;2023-06-24T11:04:23;26.02;50.00
68248;SHT30;55064;49.636;12.164;2023-06-24T11:13:13;25.93;48.35
68248;SHT30;55064;49.636;12.164;2023-06-24T11:15:40;25.86;46.11
68248;SHT30;55064;49.636;12.164;2023-06-24T11:18:09;26.17;48.69
68248;SHT30;55064;49.636;12.164;2023-06-24T11:20:36;26.27;47.99
68248;SHT30;55064;49.636;12.164;2023-06-24T11:23:02;26.50;48.27
68248;SHT30;55064;49.636;12.164;2023-06-24T11:25:32;26.51;47.76
68248;SHT30;55064;49.636;12.164;2023-06-24T11:28:03;26.48;47.55
68248;SHT30;55064;49.636;12.164;2023-06-24T11:30:34;26.72;45.91
68248;SHT30;55064;49.636;12.164;2023-06-24T11:32:59;26.61;46.38
68248;SHT30;55064;49.636;12.164;2023-06-24T11:35:26;26.47;46.18
68248;SHT30;55064;49.636;12.164;2023-06-24T11:37:52;26.53;46.60
68248;SHT30;55064;49.636;12.164;2023-06-24T11:40:19;26.74;47.89
68248;SHT30;55064;49.636;12.164;2023-06-24T11:42:45;26.77;48.62
68248;SHT30;55064;49.636;12.164;2023-06-24T11:45:13;26.47;47.77
68248;SHT30;55064;49.636;12.164;2023-06-24T11:47:43;26.26;50.99
68248;SHT30;55064;49.636;12.164;2023-06-24T11:50:13;25.37;51.86
68248;SHT30;55064;49.636;12.164;2023-06-24T11:52:42;25.10;50.17
68248;SHT30;55064;49.636;12.164;2023-06-24T11:55:18;24.96;51.93
68248;SHT30;55064;49.636;12.164;2023-06-24T11:58:00;25.51;52.52
68248;SHT30;55064;49.636;12.164;2023-06-24T12:00:39;25.95;51.58
68248;SHT30;55064;49.636;12.164;2023-06-24T12:03:07;26.27;51.12
68248;SHT30;55064;49.636;12.164;2023-06-24T12:05:35;26.27;48.89
68248;SHT30;55064;49.636;12.164;2023-06-24T12:08:06;26.51;48.67
68248;SHT30;55064;49.636;12.164;2023-06-24T12:10:34;25.95;49.10
68248;SHT30;55064;49.636;12.164;2023-06-24T12:13:03;25.86;49.00
68248;SHT30;55064;49.636;12.164;2023-06-24T12:15:29;26.10;49.61
68248;SHT30;55064;49.636;12.164;2023-06-24T12:17:57;26.23;48.73
68248;SHT30;55064;49.636;12.164;2023-06-24T12:20:28;26.55;47.57
68248;SHT30;55064;49.636;12.164;2023-06-24T12:22:53;26.58;46.17
68248;SHT30;55064;49.636;12.164;2023-06-24T12:25:18;26.77;48.15
68248;SHT30;55064;49.636;12.164;2023-06-24T12:27:53;26.82;45.72
68248;SHT30;55064;49.636;12.164;2023-06-24T12:30:21;27.13;48.72
68248;SHT30;55064;49.636;12.164;2023-06-24T12:32:53;27.47;45.91
68248;SHT30;55064;49.636;12.164;2023-06-24T12:35:18;27.57;45.70
68248;SHT30;55064;49.636;12.164;2023-06-24T12:37:44;27.51;45.41
68248;SHT30;55064;49.636;12.164;2023-06-24T12:40:11;27.10;47.83
68248;SHT30;55064;49.636;12.164;2023-06-24T12:42:37;26.87;48.62
68248;SHT30;55064;49.636;12.164;2023-06-24T12:45:02;26.70;48.41
68248;SHT30;55064;49.636;12.164;2023-06-24T12:47:31;26.74;48.56
68248;SHT30;55064;49.636;12.164;2023-06-24T12:49:56;27.06;48.19
68248;SHT30;55064;49.636;12.164;2023-06-24T12:52:24;27.47;46.64
68248;SHT30;55064;49.636;12.164;2023-06-24T12:54:52;27.19;47.76
68248;SHT30;55064;49.636;12.164;2023-06-24T12:57:17;27.09;45.82
68248;SHT30;55064;49.636;12.164;2023-06-24T12:59:43;26.92;46.04
68248;SHT30;55064;49.636;12.164;2023-06-24T13:02:08;26.68;47.38
68248;SHT30;55064;49.636;12.164;2023-06-24T13:04:34;26.77;46.50
68248;SHT30;55064;49.636;12.164;2023-06-24T13:07:01;26.94;45.62
68248;SHT30;55064;49.636;12.164;2023-06-24T13:09:30;27.27;46.01
68248;SHT30;55064;49.636;12.164;2023-06-24T13:11:55;27.30;43.15
68248;SHT30;55064;49.636;12.164;2023-06-24T13:14:21;27.17;44.20
68248;SHT30;55064;49.636;12.164;2023-06-24T13:16:51;26.88;43.14
68248;SHT30;55064;49.636;12.164;2023-06-24T13:19:19;26.36;44.79
68248;SHT30;55064;49.636;12.164;2023-06-24T13:21:44;26.07;46.58
68248;SHT30;55064;49.636;12.164;2023-06-24T13:24:11;25.57;46.48
68248;SHT30;55064;49.636;12.164;2023-06-24T13:26:37;25.48;48.01
68248;SHT30;55064;49.636;12.164;2023-06-24T13:29:03;25.60;48.35
68248;SHT30;55064;49.636;12.164;2023-06-24T13:31:29;25.61;45.56
68248;SHT30;55064;49.636;12.164;2023-06-24T13:33:55;25.58;44.13
68248;SHT30;55064;49.636;12.164;2023-06-24T13:36:37;25.90;44.12
68248;SHT30;55064;49.636;12.164;2023-06-24T13:39:07;26.32;42.83
68248;SHT30;55064;49.636;12.164;2023-06-24T13:41:33;26.67;43.23
68248;SHT30;55064;49.636;12.164;2023-06-24T13:44:00;26.51;39.16
68248;SHT30;55064;49.636;12.164;2023-06-24T13:46:25;26.43;40.04
68248;SHT30;55064;49.636;12.164;2023-06-24T13:48:53;26.37;37.95
68248;SHT30;55064;49.636;12.164;2023-06-24T13:51:19;26.60;38.00
68248;SHT30;55064;49.636;12.164;2023-06-24T13:53:48;26.75;39.04
68248;SHT30;55064;49.636;12.164;2023-06-24T13:56:15;26.78;38.06
68248;SHT30;55064;49.636;12.164;2023-06-24T13:58:40;26.87;38.76
68248;SHT30;55064;49.636;12.164;2023-06-24T14:07:48;27.09;37.32
68248;SHT30;55064;49.636;12.164;2023-06-24T14:10:14;27.22;36.32
68248;SHT30;55064;49.636;12.164;2023-06-24T14:12:39;27.15;35.56
68248;SHT30;55064;49.636;12.164;2023-06-24T14:15:08;27.20;36.47
68248;SHT30;55064;49.636;12.164;2023-06-24T14:17:47;27.23;36.66
68248;SHT30;55064;49.636;12.164;2023-06-24T14:26:56;26.88;37.40
68248;SHT30;55064;49.636;12.164;2023-06-24T14:29:24;26.64;36.14
68248;SHT30;55064;49.636;12.164;2023-06-24T14:31:51;26.77;39.04
68248;SHT30;55064;49.636;12.164;2023-06-24T14:34:16;26.96;38.96
68248;SHT30;55064;49.636;12.164;2023-06-24T14:36:41;27.13;37.51
68248;SHT30;55064;49.636;12.164;2023-06-24T14:39:07;27.09;36.79
68248;SHT30;55064;49.636;12.164;2023-06-24T14:41:32;27.23;39.00
68248;SHT30;55064;49.636;12.164;2023-06-24T14:43:58;27.32;40.21
68248;SHT30;55064;49.636;12.164;2023-06-24T14:46:47;27.50;38.94
68248;SHT30;55064;49.636;12.164;2023-06-24T14:49:13;27.68;40.68
68248;SHT30;55064;49.636;12.164;2023-06-24T14:51:40;27.63;37.95
68248;SHT30;55064;49.636;12.164;2023-06-24T14:54:06;27.90;38.75
68248;SHT30;55064;49.636;12.164;2023-06-24T14:56:56;27.70;37.06
68248;SHT30;55064;49.636;12.164;2023-06-24T14:59:23;27.63;36.30
68248;SHT30;55064;49.636;12.164;2023-06-24T15:04:57;27.30;34.87
68248;SHT30;55064;49.636;12.164;2023-06-24T15:10:36;27.42;36.27
68248;SHT30;55064;49.636;12.164;2023-06-24T15:13:03;27.46;36.41
68248;SHT30;55064;49.636;12.164;2023-06-24T15:15:29;27.36;36.50
68248;SHT30;55064;49.636;12.164;2023-06-24T15:17:59;27.29;36.87
68248;SHT30;55064;49.636;12.164;2023-06-24T15:20:32;27.30;35.85
68248;SHT30;55064;49.636;12.164;2023-06-24T15:26:58;27.03;35.00
68248;SHT30;55064;49.636;12.164;2023-06-24T15:29:23;26.85;34.95
68248;SHT30;55064;49.636;12.164;2023-06-24T15:31:50;26.96;36.22
68248;SHT30;55064;49.636;12.164;2023-06-24T15:34:15;26.91;35.63
68248;SHT30;55064;49.636;12.164;2023-06-24T15:36:43;26.99;35.32
68248;SHT30;55064;49.636;12.164;2023-06-24T15:39:22;27.06;36.57
68248;SHT30;55064;49.636;12.164;2023-06-24T15:52:02;26.71;36.29
68248;SHT30;55064;49.636;12.164;2023-06-24T15:54:51;26.77;37.18
68248;SHT30;55064;49.636;12.164;2023-06-24T15:57:17;26.72;36.63
68248;SHT30;55064;49.636;12.164;2023-06-24T16:00:01;26.94;36.01
68248;SHT30;55064;49.636;12.164;2023-06-24T16:02:36;26.84;36.06
68248;SHT30;55064;49.636;12.164;2023-06-24T16:05:21;26.88;35.94
68248;SHT30;55064;49.636;12.164;2023-06-24T16:07:47;26.72;34.49
68248;SHT30;55064;49.636;12.164;2023-06-24T16:10:13;26.71;34.74
68248;SHT30;55064;49.636;12.164;2023-06-24T16:12:40;26.54;34.97
68248;SHT30;55064;49.636;12.164;2023-06-24T16:15:06;26.68;35.46
68248;SHT30;55064;49.636;12.164;2023-06-24T16:17:31;26.55;33.42
68248;SHT30;55064;49.636;12.164;2023-06-24T16:20:06;26.60;35.25
68248;SHT30;55064;49.636;12.164;2023-06-24T16:22:47;26.70;35.49
68248;SHT30;55064;49.636;12.164;2023-06-24T16:25:12;26.74;35.35
68248;SHT30;55064;49.636;12.164;2023-06-24T16:27:38;26.70;36.71
68248;SHT30;55064;49.636;12.164;2023-06-24T16:30:04;26.71;35.17
68248;SHT30;55064;49.636;12.164;2023-06-24T16:32:30;26.60;35.50
68248;SHT30;55064;49.636;12.164;2023-06-24T16:34:55;26.47;36.45
68248;SHT30;55064;49.636;12.164;2023-06-24T16:37:43;26.33;36.95
68248;SHT30;55064;49.636;12.164;2023-06-24T16:43:29;26.32;37.58
68248;SHT30;55064;49.636;12.164;2023-06-24T16:49:17;26.05;37.08
68248;SHT30;55064;49.636;12.164;2023-06-24T16:51:43;25.86;37.59
68248;SHT30;55064;49.636;12.164;2023-06-24T16:54:08;25.81;37.68
68248;SHT30;55064;49.636;12.164;2023-06-24T16:56:42;25.79;37.51
68248;SHT30;55064;49.636;12.164;2023-06-24T16:59:28;25.85;37.91
68248;SHT30;55064;49.636;12.164;2023-06-24T17:05:00;25.81;39.10
68248;SHT30;55064;49.636;12.164;2023-06-24T17:10:48;25.55;37.68
68248;SHT30;55064;49.636;12.164;2023-06-24T17:13:20;25.33;37.46
68248;SHT30;55064;49.636;12.164;2023-06-24T17:18:54;24.99;39.05
68248;SHT30;55064;49.636;12.164;2023-06-24T17:21:19;24.82;39.07
68248;SHT30;55064;49.636;12.164;2023-06-24T17:23:53;24.80;39.73
68248;SHT30;55064;49.636;12.164;2023-06-24T17:26:32;24.90;39.89
68248;SHT30;55064;49.636;12.164;2023-06-24T17:29:35;24.75;38.95
68248;SHT30;55064;49.636;12.164;2023-06-24T17:32:11;24.68;39.10
68248;SHT30;55064;49.636;12.164;2023-06-24T17:37:58;24.33;39.79